createdAt,value
2019-05-25T00:00:53.793Z,11.30
2019-05-25T00:03:23.299Z,11.30
2019-05-25T00:05:55.132Z,11.20
2019-05-25T00:08:24.646Z,11.20
2019-05-25T00:10:54.005Z,11.20
2019-05-25T00:13:23.340Z,11.10
2019-05-25T00:15:52.620Z,11.10
2019-05-25T00:18:22.092Z,11.00
2019-05-25T00:20:51.607Z,11.00
2019-05-25T00:23:20.879Z,10.90
2019-05-25T00:25:50.278Z,10.90
2019-05-25T00:28:19.639Z,10.80
2019-05-25T00:30:48.843Z,10.80
2019-05-25T00:33:18.250Z,10.80
2019-05-25T00:35:47.686Z,10.70
2019-05-25T00:38:17.157Z,10.70
2019-05-25T00:40:46.576Z,10.60
2019-05-25T00:43:16.053Z,10.60
2019-05-25T00:45:45.421Z,10.60
2019-05-25T00:48:14.758Z,10.50
2019-05-25T00:50:44.051Z,10.50
2019-05-25T00:53:13.382Z,10.50
2019-05-25T00:55:42.739Z,10.40
2019-05-25T00:58:12.080Z,10.40
2019-05-25T01:00:41.740Z,10.30
2019-05-25T01:03:11.000Z,10.30
2019-05-25T01:05:40.213Z,10.30
2019-05-25T01:08:09.599Z,10.20
2019-05-25T01:10:38.859Z,10.20
2019-05-25T01:13:08.214Z,10.20
2019-05-25T01:15:37.738Z,10.10
2019-05-25T01:18:07.065Z,10.10
2019-05-25T01:20:36.369Z,10.10
2019-05-25T01:23:05.717Z,10.00
2019-05-25T01:25:35.066Z,10.00
2019-05-25T01:28:04.359Z,9.90
2019-05-25T01:30:33.697Z,9.90
2019-05-25T01:33:02.996Z,9.90
2019-05-25T01:35:32.282Z,9.80
2019-05-25T01:38:01.744Z,9.80
2019-05-25T01:40:31.272Z,9.80
2019-05-25T01:43:00.607Z,9.70
2019-05-25T01:45:30.463Z,9.70
2019-05-25T01:47:59.920Z,9.60
2019-05-25T01:50:29.330Z,9.60
2019-05-25T01:52:58.753Z,9.60
2019-05-25T01:55:28.515Z,9.60
2019-05-25T01:57:57.732Z,9.60
2019-05-25T02:00:27.315Z,9.60
2019-05-25T02:02:56.798Z,9.60
2019-05-25T02:05:26.143Z,9.60
2019-05-25T02:07:55.434Z,9.60
2019-05-25T02:10:24.725Z,9.60
2019-05-25T02:12:53.997Z,9.60
2019-05-25T02:15:23.350Z,9.60
2019-05-25T02:17:52.661Z,9.50
2019-05-25T02:20:22.035Z,9.50
2019-05-25T02:22:51.490Z,9.50
2019-05-25T02:25:20.984Z,9.50
2019-05-25T02:27:50.448Z,9.50
2019-05-25T02:30:21.637Z,9.50
2019-05-25T02:32:51.053Z,9.50
2019-05-25T02:35:25.971Z,9.50
2019-05-25T02:37:55.567Z,9.40
2019-05-25T02:40:25.335Z,9.40
2019-05-25T02:42:54.782Z,9.40
2019-05-25T02:45:24.200Z,9.40
2019-05-25T02:47:53.552Z,9.40
2019-05-25T02:50:23.237Z,9.40
2019-05-25T02:52:52.515Z,9.40
2019-05-25T02:55:33.962Z,9.40
2019-05-25T02:57:52.745Z,9.40
2019-05-25T03:00:31.425Z,9.30
2019-05-25T03:03:01.054Z,9.30
2019-05-25T03:05:30.322Z,9.30
2019-05-25T03:07:59.807Z,9.30
2019-05-25T03:10:29.745Z,9.20
2019-05-25T03:13:01.550Z,9.20
2019-05-25T03:15:30.933Z,9.20
2019-05-25T03:18:00.188Z,9.30
2019-05-25T03:20:29.543Z,9.30
2019-05-25T03:22:58.893Z,9.30
2019-05-25T03:25:28.248Z,9.30
2019-05-25T03:27:57.739Z,9.30
2019-05-25T03:30:34.782Z,9.30
2019-05-25T03:33:04.138Z,9.40
2019-05-25T03:35:33.579Z,9.40
2019-05-25T03:38:03.145Z,9.50
2019-05-25T03:40:32.535Z,9.50
2019-05-25T03:43:01.805Z,9.50
2019-05-25T03:45:31.157Z,9.60
2019-05-25T03:48:00.457Z,9.60
2019-05-25T03:50:29.860Z,9.70
2019-05-25T03:52:59.342Z,9.70
2019-05-25T03:55:47.786Z,9.80
2019-05-25T03:58:17.046Z,9.80
2019-05-25T04:00:46.330Z,9.80
2019-05-25T04:03:15.566Z,9.90
2019-05-25T04:05:44.838Z,9.90
2019-05-25T04:08:14.274Z,9.90
2019-05-25T04:10:43.594Z,10.00
2019-05-25T04:13:13.109Z,10.00
2019-05-25T04:15:42.460Z,10.10
2019-05-25T04:18:11.728Z,10.10
2019-05-25T04:20:41.050Z,10.10
2019-05-25T04:23:10.589Z,10.20
2019-05-25T04:25:39.982Z,10.20
2019-05-25T04:28:09.337Z,10.30
2019-05-25T04:30:38.500Z,10.30
2019-05-25T04:33:08.058Z,10.40
2019-05-25T04:35:37.372Z,10.50
2019-05-25T04:38:06.731Z,10.50
2019-05-25T04:40:36.034Z,10.50
2019-05-25T04:43:05.373Z,10.60
2019-05-25T04:45:34.773Z,10.60
2019-05-25T04:48:04.363Z,10.70
2019-05-25T04:50:36.931Z,10.70
2019-05-25T04:53:09.786Z,10.70
2019-05-25T04:55:41.648Z,10.80
2019-05-25T04:58:11.195Z,10.80
2019-05-25T05:00:43.913Z,10.80
2019-05-25T05:03:13.165Z,10.80
2019-05-25T05:05:42.457Z,10.90
2019-05-25T05:08:14.658Z,10.90
2019-05-25T05:10:44.122Z,10.90
2019-05-25T05:13:13.517Z,10.90
2019-05-25T05:15:42.854Z,11.00
2019-05-25T05:18:12.303Z,11.00
2019-05-25T05:20:41.710Z,11.10
2019-05-25T05:23:10.927Z,11.20
2019-05-25T05:25:40.572Z,11.20
2019-05-25T05:28:10.328Z,11.30
2019-05-25T05:30:40.067Z,11.40
2019-05-25T05:33:10.127Z,11.50
2019-05-25T05:35:40.005Z,11.60
2019-05-25T05:38:09.388Z,11.60
2019-05-25T05:40:38.982Z,11.70
2019-05-25T05:43:11.332Z,11.80
2019-05-25T05:45:42.346Z,11.90
2019-05-25T05:48:13.965Z,11.90
2019-05-25T05:50:45.344Z,12.00
2019-05-25T05:53:14.976Z,12.00
2019-05-25T05:55:44.605Z,12.00
2019-05-25T05:58:14.192Z,12.10
2019-05-25T06:00:43.651Z,12.10
2019-05-25T06:03:13.530Z,12.20
2019-05-25T06:05:43.307Z,12.10
2019-05-25T06:08:12.972Z,12.10
2019-05-25T06:10:43.588Z,12.10
2019-05-25T06:13:13.197Z,12.20
2019-05-25T06:15:42.692Z,12.20
2019-05-25T06:18:12.390Z,12.20
2019-05-25T06:20:42.191Z,12.20
2019-05-25T06:23:12.554Z,12.20
2019-05-25T06:25:42.571Z,12.20
2019-05-25T06:28:11.878Z,12.20
2019-05-25T06:30:41.299Z,12.20
2019-05-25T06:33:10.730Z,12.10
2019-05-25T06:35:40.092Z,12.00
2019-05-25T06:38:09.475Z,12.00
2019-05-25T06:40:38.844Z,11.90
2019-05-25T06:43:08.231Z,11.90
2019-05-25T06:45:38.707Z,11.90
2019-05-25T06:48:08.116Z,11.90
2019-05-25T06:50:37.463Z,11.90
2019-05-25T06:53:06.743Z,11.90
2019-05-25T06:55:36.283Z,11.90
2019-05-25T06:58:05.629Z,11.90
2019-05-25T07:00:34.944Z,11.90
2019-05-25T07:03:04.358Z,11.90
2019-05-25T07:05:33.712Z,11.90
2019-05-25T07:08:03.097Z,11.80
2019-05-25T07:10:32.466Z,11.90
2019-05-25T07:13:02.235Z,11.90
2019-05-25T07:15:31.625Z,11.90
2019-05-25T07:18:00.925Z,12.00
2019-05-25T07:20:30.333Z,12.00
2019-05-25T07:22:59.579Z,12.00
2019-05-25T07:25:29.076Z,12.10
2019-05-25T07:28:00.290Z,12.10
2019-05-25T07:30:29.283Z,12.10
2019-05-25T07:32:58.746Z,12.20
2019-05-25T07:35:28.033Z,12.20
2019-05-25T07:37:57.709Z,12.30
2019-05-25T07:40:26.998Z,12.40
2019-05-25T07:42:56.296Z,12.50
2019-05-25T07:45:25.612Z,12.60
2019-05-25T07:47:55.170Z,12.60
2019-05-25T07:50:24.468Z,12.70
2019-05-25T07:52:53.933Z,12.70
2019-05-25T07:55:23.203Z,12.80
2019-05-25T07:57:52.598Z,12.90
2019-05-25T08:00:23.471Z,13.10
2019-05-25T08:02:52.931Z,13.30
2019-05-25T08:05:22.202Z,13.50
2019-05-25T08:07:51.638Z,13.70
2019-05-25T08:10:20.900Z,13.80
2019-05-25T08:12:56.896Z,13.90
2019-05-25T08:15:26.234Z,14.00
2019-05-25T08:17:55.568Z,13.90
2019-05-25T08:20:24.977Z,13.90
2019-05-25T08:22:54.275Z,13.80
2019-05-25T08:25:23.632Z,13.70
2019-05-25T08:27:53.019Z,13.70
2019-05-25T08:30:41.490Z,13.70
2019-05-25T08:33:10.811Z,13.60
2019-05-25T08:35:40.027Z,13.60
2019-05-25T08:38:09.370Z,13.80
2019-05-25T08:40:38.629Z,14.00
2019-05-25T08:43:07.967Z,14.20
2019-05-25T08:45:37.327Z,14.40
2019-05-25T08:48:06.620Z,14.90
2019-05-25T08:50:38.676Z,15.50
2019-05-25T08:53:07.009Z,15.80
2019-05-25T08:55:36.666Z,15.90
2019-05-25T08:58:05.878Z,15.90
2019-05-25T09:00:35.193Z,16.10
2019-05-25T09:03:04.441Z,16.10
2019-05-25T09:05:33.676Z,16.30
2019-05-25T09:08:03.032Z,16.60
2019-05-25T09:10:32.235Z,16.80
2019-05-25T09:13:01.630Z,16.60
2019-05-25T09:15:30.955Z,17.40
2019-05-25T09:18:00.811Z,17.60
2019-05-25T09:20:30.076Z,17.30
2019-05-25T09:22:59.267Z,17.10
2019-05-25T09:25:28.664Z,17.00
2019-05-25T09:27:57.927Z,17.30
2019-05-25T09:30:27.386Z,17.60
2019-05-25T09:32:56.760Z,17.30
2019-05-25T09:35:26.056Z,17.40
2019-05-25T09:37:55.570Z,17.60
2019-05-25T09:40:24.922Z,17.80
2019-05-25T09:42:54.320Z,18.30
2019-05-25T09:45:23.694Z,18.90
2019-05-25T09:47:52.979Z,19.40
2019-05-25T09:50:22.373Z,19.70
2019-05-25T09:52:51.834Z,19.40
2019-05-25T09:55:21.101Z,18.70
2019-05-25T09:57:50.477Z,19.20
2019-05-25T10:00:19.813Z,19.00
2019-05-25T10:02:49.282Z,19.60
2019-05-25T10:05:19.158Z,19.40
2019-05-25T10:07:48.545Z,19.60
2019-05-25T10:10:19.431Z,19.30
2019-05-25T10:12:48.715Z,19.80
2019-05-25T10:15:18.030Z,20.20
2019-05-25T10:17:47.314Z,20.70
2019-05-25T10:20:16.965Z,20.30
2019-05-25T10:22:46.416Z,20.00
2019-05-25T10:25:15.800Z,20.00
2019-05-25T10:27:45.201Z,20.60
2019-05-25T10:30:15.424Z,20.90
2019-05-25T10:32:44.813Z,20.90
2019-05-25T10:35:14.426Z,21.20
2019-05-25T10:37:47.679Z,21.20
2019-05-25T10:40:17.030Z,20.90
2019-05-25T10:42:46.386Z,20.70
2019-05-25T10:45:15.821Z,20.60
2019-05-25T10:47:45.186Z,20.60
2019-05-25T10:50:15.159Z,20.50
2019-05-25T10:52:44.659Z,20.50
2019-05-25T10:55:15.939Z,20.50
2019-05-25T10:57:45.406Z,19.60
2019-05-25T11:00:15.407Z,19.50
2019-05-25T11:02:45.386Z,20.20
2019-05-25T11:05:15.339Z,20.70
2019-05-25T11:07:44.675Z,20.70
2019-05-25T11:10:14.590Z,20.90
2019-05-25T11:12:43.870Z,20.80
2019-05-25T11:15:13.556Z,21.10
2019-05-25T11:17:42.944Z,21.00
2019-05-25T11:20:12.516Z,20.90
2019-05-25T11:22:41.859Z,20.90
2019-05-25T11:25:11.517Z,21.10
2019-05-25T11:27:40.842Z,21.10
2019-05-25T11:30:10.587Z,20.80
2019-05-25T11:32:40.080Z,20.80
2019-05-25T11:35:09.864Z,20.60
2019-05-25T11:37:39.147Z,20.30
2019-05-25T11:40:09.213Z,20.00
2019-05-25T11:42:38.576Z,19.80
2019-05-25T11:45:08.728Z,20.10
2019-05-25T11:47:38.246Z,20.30
2019-05-25T11:50:08.483Z,20.60
2019-05-25T11:52:37.864Z,20.60
2019-05-25T11:55:08.298Z,20.70
2019-05-25T11:57:37.698Z,20.70
2019-05-25T12:00:23.333Z,20.80
2019-05-25T12:02:38.928Z,20.70
2019-05-25T12:05:08.999Z,20.90
2019-05-25T12:07:44.454Z,20.90
2019-05-25T12:10:14.322Z,21.00
2019-05-25T12:12:43.632Z,21.10
2019-05-25T12:15:14.534Z,21.20
2019-05-25T12:17:43.843Z,21.10
2019-05-25T12:20:15.063Z,21.00
2019-05-25T12:22:44.392Z,20.90
2019-05-25T12:25:15.477Z,20.80
2019-05-25T12:27:48.749Z,20.70
2019-05-25T12:30:16.223Z,20.70
2019-05-25T12:32:46.327Z,20.80
2019-05-25T12:35:17.272Z,21.00
2019-05-25T12:37:46.929Z,20.50
2019-05-25T12:40:18.023Z,20.70
2019-05-25T12:42:47.391Z,20.90
2019-05-25T12:45:16.900Z,21.10
2019-05-25T12:47:46.313Z,21.10
2019-05-25T12:50:17.067Z,21.40
2019-05-25T12:52:46.603Z,22.00
2019-05-25T12:55:16.301Z,22.10
2019-05-25T12:57:45.596Z,22.40
2019-05-25T13:00:16.565Z,22.60
2019-05-25T13:02:46.438Z,22.60
2019-05-25T13:05:16.037Z,22.70
2019-05-25T13:07:48.363Z,22.60
2019-05-25T13:10:17.863Z,22.40
2019-05-25T13:12:47.198Z,22.40
2019-05-25T13:15:21.773Z,22.40
2019-05-25T13:17:51.230Z,21.70
2019-05-25T13:20:20.656Z,22.00
2019-05-25T13:22:50.022Z,22.30
2019-05-25T13:25:19.369Z,22.10
2019-05-25T13:27:51.642Z,22.20
2019-05-25T13:30:21.287Z,22.40
2019-05-25T13:32:50.639Z,22.60
2019-05-25T13:35:20.009Z,22.70
2019-05-25T13:37:49.240Z,22.50
2019-05-25T13:40:18.779Z,22.40
2019-05-25T13:42:48.176Z,22.30
2019-05-25T13:45:17.631Z,21.90
2019-05-25T13:47:46.912Z,22.00
2019-05-25T13:50:17.381Z,21.80
2019-05-25T13:52:46.570Z,21.80
2019-05-25T13:55:16.049Z,21.40
2019-05-25T13:57:45.290Z,21.30
2019-05-25T14:00:14.975Z,21.20
2019-05-25T14:02:44.374Z,21.00
2019-05-25T14:05:14.258Z,21.00
2019-05-25T14:07:43.625Z,21.20
2019-05-25T14:10:12.863Z,21.00
2019-05-25T14:12:42.262Z,21.10
2019-05-25T14:15:12.032Z,21.20
2019-05-25T14:17:41.692Z,21.70
2019-05-25T14:20:11.962Z,21.90
2019-05-25T14:22:41.932Z,21.90
2019-05-25T14:25:11.324Z,21.90
2019-05-25T14:27:40.598Z,21.70
2019-05-25T14:30:10.352Z,21.80
2019-05-25T14:32:39.692Z,21.60
2019-05-25T14:35:09.227Z,21.30
2019-05-25T14:37:38.515Z,21.10
2019-05-25T14:40:11.236Z,20.80
2019-05-25T14:42:39.914Z,20.80
2019-05-25T14:45:10.411Z,20.90
2019-05-25T14:47:39.724Z,21.00
2019-05-25T14:50:09.374Z,21.40
2019-05-25T14:52:38.695Z,21.50
2019-05-25T14:55:08.094Z,21.50
2019-05-25T14:57:37.368Z,21.70
2019-05-25T15:00:07.156Z,21.70
2019-05-25T15:02:36.503Z,21.60
2019-05-25T15:05:05.837Z,21.30
2019-05-25T15:07:35.125Z,21.50
2019-05-25T15:10:04.678Z,21.60
2019-05-25T15:12:34.013Z,21.60
2019-05-25T15:15:03.244Z,21.50
2019-05-25T15:17:32.564Z,21.50
2019-05-25T15:20:01.919Z,21.20
2019-05-25T15:22:31.215Z,21.00
2019-05-25T15:25:00.561Z,21.20
2019-05-25T15:27:29.920Z,21.40
2019-05-25T15:29:59.166Z,21.40
2019-05-25T15:32:28.508Z,21.30
2019-05-25T15:34:57.730Z,21.10
2019-05-25T15:37:27.116Z,20.90
2019-05-25T15:39:56.434Z,21.00
2019-05-25T15:42:25.733Z,21.30
2019-05-25T15:44:54.990Z,21.40
2019-05-25T15:47:24.313Z,21.10
2019-05-25T15:49:53.478Z,20.90
2019-05-25T15:52:22.895Z,20.60
2019-05-25T15:54:52.162Z,20.70
2019-05-25T15:57:21.570Z,20.70
2019-05-25T15:59:51.454Z,20.70
2019-05-25T16:02:35.656Z,20.40
2019-05-25T16:04:52.182Z,20.30
2019-05-25T16:07:21.554Z,20.20
2019-05-25T16:09:50.866Z,20.10
2019-05-25T16:12:20.138Z,20.00
2019-05-25T16:14:49.600Z,20.10
2019-05-25T16:17:18.945Z,20.30
2019-05-25T16:19:48.435Z,20.40
2019-05-25T16:22:17.886Z,20.30
2019-05-25T16:24:47.191Z,20.30
2019-05-25T16:27:16.466Z,20.30
2019-05-25T16:29:45.703Z,20.40
2019-05-25T16:32:15.094Z,20.30
2019-05-25T16:34:44.506Z,20.30
2019-05-25T16:37:13.884Z,20.30
2019-05-25T16:39:43.255Z,20.40
2019-05-25T16:42:12.588Z,20.40
2019-05-25T16:44:41.896Z,20.40
2019-05-25T16:47:11.266Z,20.20
2019-05-25T16:49:40.695Z,20.10
2019-05-25T16:52:10.046Z,20.00
2019-05-25T16:54:39.484Z,20.10
2019-05-25T16:57:08.820Z,19.90
2019-05-25T16:59:38.135Z,19.80
2019-05-25T17:02:07.590Z,19.70
2019-05-25T17:04:37.039Z,19.60
2019-05-25T17:07:06.322Z,19.60
2019-05-25T17:09:35.647Z,19.60
2019-05-25T17:12:08.220Z,19.70
2019-05-25T17:14:37.687Z,19.70
2019-05-25T17:17:07.103Z,19.70
2019-05-25T17:19:36.396Z,19.60
2019-05-25T17:22:05.832Z,19.60
2019-05-25T17:24:35.256Z,19.60
2019-05-25T17:27:05.035Z,19.60
2019-05-25T17:29:35.030Z,19.60
2019-05-25T17:32:04.532Z,19.50
2019-05-25T17:34:33.789Z,19.40
2019-05-25T17:37:03.258Z,19.30
2019-05-25T17:39:34.781Z,19.20
2019-05-25T17:42:04.540Z,19.20
2019-05-25T17:44:33.906Z,19.20
2019-05-25T17:47:04.333Z,19.10
2019-05-25T17:49:33.684Z,19.00
2019-05-25T17:52:03.025Z,18.80
2019-05-25T17:54:39.319Z,18.70
2019-05-25T17:57:28.142Z,18.70
2019-05-25T17:59:59.630Z,18.70
2019-05-25T18:02:28.502Z,18.60
2019-05-25T18:04:58.152Z,18.40
2019-05-25T18:07:28.687Z,18.30
2019-05-25T18:09:58.000Z,18.20
2019-05-25T18:12:27.498Z,18.00
2019-05-25T18:14:56.799Z,17.90
2019-05-25T18:17:26.141Z,17.80
2019-05-25T18:19:55.725Z,17.70
2019-05-25T18:22:25.117Z,17.70
2019-05-25T18:24:54.385Z,17.60
2019-05-25T18:27:23.649Z,17.50
2019-05-25T18:29:53.531Z,17.50
2019-05-25T18:32:22.908Z,17.50
2019-05-25T18:34:52.307Z,17.50
2019-05-25T18:37:21.703Z,17.40
2019-05-25T18:39:51.136Z,17.40
2019-05-25T18:42:22.682Z,17.40
2019-05-25T18:44:51.957Z,17.30
2019-05-25T18:47:21.719Z,17.20
2019-05-25T18:49:51.053Z,17.20
2019-05-25T18:52:20.411Z,17.10
2019-05-25T18:54:49.722Z,17.00
2019-05-25T18:57:19.144Z,16.90
2019-05-25T18:59:48.415Z,16.90
2019-05-25T19:02:17.843Z,16.70
2019-05-25T19:04:58.204Z,16.60
2019-05-25T19:07:18.438Z,16.60
2019-05-25T19:09:47.891Z,16.40
2019-05-25T19:12:17.324Z,16.30
2019-05-25T19:14:46.711Z,16.20
2019-05-25T19:17:16.120Z,16.10
2019-05-25T19:19:45.424Z,16.00
2019-05-25T19:22:14.844Z,15.90
2019-05-25T19:24:44.245Z,15.70
2019-05-25T19:27:13.640Z,15.60
2019-05-25T19:29:42.983Z,15.40
2019-05-25T19:32:12.223Z,15.30
2019-05-25T19:34:58.145Z,15.10
2019-05-25T19:37:12.509Z,15.10
2019-05-25T19:39:41.775Z,15.00
2019-05-25T19:42:11.108Z,14.90
2019-05-25T19:44:40.389Z,14.80
2019-05-25T19:47:09.687Z,14.70
2019-05-25T19:49:41.384Z,14.60
2019-05-25T19:52:10.718Z,14.50
2019-05-25T19:54:41.135Z,14.40
2019-05-25T19:57:10.546Z,14.30
2019-05-25T19:59:39.921Z,14.20
2019-05-25T20:02:09.299Z,14.10
2019-05-25T20:04:38.651Z,14.00
2019-05-25T20:07:08.046Z,13.90
2019-05-25T20:09:37.408Z,13.80
2019-05-25T20:12:06.807Z,13.70
2019-05-25T20:14:36.370Z,13.60
2019-05-25T20:17:05.720Z,13.50
2019-05-25T20:19:34.988Z,13.40
2019-05-25T20:22:04.251Z,13.40
2019-05-25T20:24:33.501Z,13.30
2019-05-25T20:27:02.843Z,13.20
2019-05-25T20:29:32.152Z,13.10
2019-05-25T20:32:01.470Z,13.00
2019-05-25T20:34:30.744Z,12.90
2019-05-25T20:36:59.992Z,12.90
2019-05-25T20:39:29.366Z,12.80
2019-05-25T20:41:58.637Z,12.70
2019-05-25T20:44:28.072Z,12.60
2019-05-25T20:46:57.424Z,12.50
2019-05-25T20:49:26.798Z,12.50
2019-05-25T20:51:56.093Z,12.40
2019-05-25T20:54:25.369Z,12.30
2019-05-25T20:56:54.769Z,12.20
2019-05-25T20:59:24.088Z,12.10
2019-05-25T21:01:53.545Z,12.00
2019-05-25T21:04:23.014Z,11.90
2019-05-25T21:06:52.441Z,11.90
2019-05-25T21:09:21.816Z,11.80
2019-05-25T21:11:51.069Z,11.80
2019-05-25T21:14:20.381Z,11.70
2019-05-25T21:16:49.885Z,11.70
2019-05-25T21:19:19.091Z,11.60
2019-05-25T21:21:48.531Z,11.50
2019-05-25T21:24:18.042Z,11.40
2019-05-25T21:26:47.319Z,11.40
2019-05-25T21:29:16.630Z,11.30
2019-05-25T21:31:45.970Z,11.30
2019-05-25T21:34:15.231Z,11.20
2019-05-25T21:36:44.678Z,11.20
2019-05-25T21:39:14.094Z,11.20
2019-05-25T21:41:43.482Z,11.10
2019-05-25T21:44:12.817Z,11.10
2019-05-25T21:46:42.138Z,11.00
2019-05-25T21:49:11.386Z,10.90
2019-05-25T21:51:40.794Z,10.90
2019-05-25T21:54:10.040Z,10.90
2019-05-25T21:56:39.405Z,10.80
2019-05-25T21:59:08.685Z,10.70
2019-05-25T22:01:38.007Z,10.70
2019-05-25T22:04:07.275Z,10.60
2019-05-25T22:06:36.671Z,10.50
2019-05-25T22:09:07.796Z,10.50
2019-05-25T22:11:37.087Z,10.40
2019-05-25T22:14:06.514Z,10.40
2019-05-25T22:16:35.846Z,10.30
2019-05-25T22:19:05.236Z,10.30
2019-05-25T22:21:34.594Z,10.20
2019-05-25T22:24:03.864Z,10.20
2019-05-25T22:26:33.274Z,10.20
2019-05-25T22:29:02.561Z,10.10
2019-05-25T22:31:31.958Z,10.10
2019-05-25T22:34:01.306Z,10.10
2019-05-25T22:36:39.741Z,10.10
2019-05-25T22:39:01.670Z,10.00
2019-05-25T22:41:31.139Z,10.00
2019-05-25T22:44:00.507Z,9.90
2019-05-25T22:46:29.826Z,9.90
2019-05-25T22:48:59.103Z,9.80
2019-05-25T22:51:28.480Z,9.80
2019-05-25T22:53:57.834Z,9.80
2019-05-25T22:56:27.242Z,9.70
2019-05-25T22:58:56.642Z,9.70
2019-05-25T23:01:25.952Z,9.60
2019-05-25T23:03:55.223Z,9.60
2019-05-25T23:06:24.548Z,9.60
2019-05-25T23:08:53.949Z,9.50
2019-05-25T23:11:23.299Z,9.40
2019-05-25T23:13:52.678Z,9.40
2019-05-25T23:16:21.920Z,9.40
2019-05-25T23:18:51.159Z,9.30
2019-05-25T23:21:20.426Z,9.30
2019-05-25T23:23:49.845Z,9.20
2019-05-25T23:26:19.292Z,9.20
2019-05-25T23:28:48.561Z,9.10
2019-05-25T23:31:17.874Z,9.10
2019-05-25T23:33:47.144Z,9.00
2019-05-25T23:36:16.443Z,9.00
2019-05-25T23:38:45.647Z,9.00
2019-05-25T23:41:15.025Z,9.00
2019-05-25T23:43:44.364Z,9.00
2019-05-25T23:46:13.668Z,9.00
2019-05-25T23:48:43.152Z,8.90
2019-05-25T23:51:13.883Z,8.90
2019-05-25T23:53:43.156Z,8.90
2019-05-25T23:56:12.386Z,8.90
2019-05-25T23:58:41.727Z,8.80
